Time;durP1;ratioP1;P1;durP2;ratioP2;P2;SDS_P1;SDS_P2;PMS_P1;PMS_P2;Temp;Humidity;BMP_temperature;BMP_pressure;BME280_temperature;BME280_humidity;BME280_pressure;Samples;Min_cycle;Max_cycle;Signal;HPM_P1;HPM_P2
2023/10/05 00:01:31;;;;;;;13.37;12.40;;;10.40;99.90;;;;;;4869656;29;20447;-42
2023/10/05 00:03:58;;;;;;;12.50;11.70;;;10.40;99.90;;;;;;4870053;29;20199;-41
2023/10/05 00:06:24;;;;;;;13.23;12.47;;;10.40;99.90;;;;;;4868392;29;20496;-40
2023/10/05 00:08:52;;;;;;;12.60;11.80;;;10.40;99.90;;;;;;4869178;29;20475;-40
2023/10/05 00:11:23;;;;;;;12.10;11.40;;;10.40;99.90;;;;;;4868650;29;20231;-42
2023/10/05 00:13:53;;;;;;;13.60;12.60;;;10.40;99.90;;;;;;4868979;29;20409;-43
2023/10/05 00:16:21;;;;;;;12.10;11.40;;;10.40;99.90;;;;;;4868793;29;20444;-40
2023/10/05 00:18:49;;;;;;;12.60;11.80;;;10.40;99.90;;;;;;4868637;29;20444;-39
2023/10/05 00:21:19;;;;;;;12.43;11.73;;;10.40;99.90;;;;;;4868870;29;20444;-40
2023/10/05 00:23:56;;;;;;;12.70;11.80;;;10.40;99.90;;;;;;4869455;29;20959;-39
2023/10/05 00:26:28;;;;;;;12.13;11.20;;;10.40;99.90;;;;;;4867149;29;20444;-39
2023/10/05 00:32:00;;;;;;;12.70;11.90;;;10.40;99.90;;;;;;4846754;29;20444;-41
2023/10/05 00:34:35;;;;;;;12.63;11.80;;;10.40;99.90;;;;;;4864867;29;20460;-40
2023/10/05 00:37:01;;;;;;;13.67;12.63;;;10.40;99.90;;;;;;4868321;29;20436;-41
2023/10/05 00:39:31;;;;;;;12.53;11.73;;;10.40;99.90;;;;;;4866197;29;20447;-39
2023/10/05 00:44:33;;;;;;;12.90;12.00;;;10.30;99.90;;;;;;4868313;29;20480;-47
2023/10/05 00:47:03;;;;;;;12.30;11.60;;;10.30;99.90;;;;;;4867794;29;20436;-41
2023/10/05 00:49:52;;;;;;;13.00;12.10;;;10.30;99.90;;;;;;4865561;29;20483;-41
2023/10/05 00:52:24;;;;;;;12.83;11.90;;;10.30;99.90;;;;;;4868491;29;20824;-41
2023/10/05 00:54:52;;;;;;;12.80;12.10;;;10.30;99.90;;;;;;4869001;29;20863;-41
2023/10/05 00:57:28;;;;;;;12.80;12.00;;;10.30;99.90;;;;;;4865848;29;20487;-40
2023/10/05 01:02:31;;;;;;;12.50;11.70;;;10.30;99.90;;;;;;4867984;29;20458;-39
2023/10/05 01:05:01;;;;;;;12.13;11.37;;;10.30;99.90;;;;;;4867980;29;20523;-40
2023/10/05 01:12:43;;;;;;;12.70;11.93;;;10.40;99.90;;;;;;4868387;29;20441;-40
2023/10/05 01:15:11;;;;;;;13.03;12.10;;;10.50;99.90;;;;;;4867564;29;20464;-40
2023/10/05 01:17:40;;;;;;;13.33;12.20;;;10.40;99.90;;;;;;4867681;29;20469;-40
2023/10/05 01:20:22;;;;;;;13.10;12.30;;;10.40;99.90;;;;;;4867445;29;20511;-40
2023/10/05 01:22:54;;;;;;;12.43;11.73;;;10.40;99.90;;;;;;4867431;29;20446;-42
2023/10/05 01:25:20;;;;;;;12.63;11.73;;;10.30;99.90;;;;;;4866525;29;20523;-40
2023/10/05 01:27:48;;;;;;;12.33;11.43;;;10.30;99.90;;;;;;4867817;29;20448;-40
2023/10/05 01:30:15;;;;;;;13.27;12.47;;;10.30;99.90;;;;;;4865133;29;20499;-40
2023/10/05 01:32:41;;;;;;;12.03;11.43;;;10.30;99.90;;;;;;4867524;29;20939;-40
2023/10/05 01:35:13;;;;;;;13.10;12.10;;;10.30;99.90;;;;;;4866415;29;20452;-40
2023/10/05 01:37:40;;;;;;;12.47;11.70;;;10.30;99.90;;;;;;4866993;29;20927;-40
2023/10/05 01:42:46;;;;;;;12.50;11.60;;;10.30;99.90;;;;;;4866566;29;20444;-40
2023/10/05 01:45:22;;;;;;;12.60;11.80;;;10.30;99.90;;;;;;4867191;29;20440;-40
2023/10/05 01:47:49;;;;;;;13.33;12.00;;;10.30;99.90;;;;;;4867747;29;20454;-40
2023/10/05 01:50:37;;;;;;;12.30;11.60;;;10.40;99.90;;;;;;4867163;29;20572;-42
2023/10/05 01:53:15;;;;;;;12.80;11.90;;;10.40;99.90;;;;;;4867806;29;20425;-40
2023/10/05 01:55:44;;;;;;;13.23;12.40;;;10.40;99.90;;;;;;4867801;29;20427;-40
2023/10/05 01:58:13;;;;;;;11.90;11.20;;;10.50;99.90;;;;;;4868107;29;20938;-41
2023/10/05 02:00:40;;;;;;;12.50;11.70;;;10.40;99.90;;;;;;4867861;29;20487;-40
2023/10/05 02:03:12;;;;;;;12.87;12.10;;;10.50;99.90;;;;;;4867353;29;20480;-40
2023/10/05 02:05:38;;;;;;;12.53;11.73;;;10.60;99.90;;;;;;4867408;29;21329;-40
2023/10/05 02:08:04;;;;;;;13.87;12.87;;;10.60;99.90;;;;;;4867566;29;20432;-40
2023/10/05 02:10:39;;;;;;;12.70;12.00;;;10.70;99.90;;;;;;4867660;29;20293;-41
2023/10/05 02:13:05;;;;;;;13.10;12.30;;;10.70;99.90;;;;;;4867400;29;20416;-39
2023/10/05 02:15:31;;;;;;;12.97;11.97;;;10.80;99.90;;;;;;4866146;29;20451;-41
2023/10/05 02:18:03;;;;;;;12.67;11.47;;;10.80;99.90;;;;;;4867345;29;20195;-41
2023/10/05 02:22:58;;;;;;;12.70;11.90;;;11.10;99.90;;;;;;4867577;29;20432;-39
2023/10/05 02:25:33;;;;;;;12.67;11.73;;;11.20;99.90;;;;;;4866518;29;20428;-40
2023/10/05 02:28:00;;;;;;;12.60;11.83;;;11.30;99.90;;;;;;4867283;29;21403;-39
2023/10/05 02:30:31;;;;;;;12.50;11.80;;;11.40;99.90;;;;;;4867395;29;20978;-41
2023/10/05 02:33:01;;;;;;;12.90;12.10;;;11.40;99.90;;;;;;4867683;29;20416;-41
2023/10/05 02:35:30;;;;;;;13.30;12.40;;;11.40;99.90;;;;;;4865430;29;20503;-40
2023/10/05 02:37:58;;;;;;;13.23;12.23;;;11.40;99.90;;;;;;4866816;29;20448;-45
2023/10/05 02:40:46;;;;;;;12.60;11.70;;;11.40;99.90;;;;;;4867289;29;20476;-39
2023/10/05 02:43:14;;;;;;;11.80;11.10;;;11.30;99.90;;;;;;4866542;29;20432;-40
2023/10/05 02:45:40;;;;;;;12.70;11.90;;;11.30;99.90;;;;;;4864780;29;20463;-40
2023/10/05 02:48:09;;;;;;;12.60;11.90;;;11.20;99.90;;;;;;4867311;29;20440;-42
2023/10/05 02:50:39;;;;;;;13.80;12.80;;;11.20;99.90;;;;;;4865562;29;20243;-41
2023/10/05 02:53:06;;;;;;;12.67;11.87;;;11.10;99.90;;;;;;4865107;29;20452;-40
2023/10/05 02:55:36;;;;;;;12.33;11.63;;;11.00;99.90;;;;;;4865231;29;20492;-40
2023/10/05 02:58:04;;;;;;;13.40;12.50;;;11.00;99.90;;;;;;4865713;29;20445;-45
2023/10/05 03:00:33;;;;;;;12.90;12.10;;;10.90;99.90;;;;;;4866325;29;20873;-47
2023/10/05 03:03:02;;;;;;;13.07;11.97;;;10.90;99.90;;;;;;4866625;29;20439;-47
2023/10/05 03:05:28;;;;;;;12.20;11.40;;;10.90;99.90;;;;;;4867095;29;20436;-47
2023/10/05 03:07:53;;;;;;;13.00;11.93;;;10.90;99.90;;;;;;4866392;29;20463;-46
2023/10/05 03:10:23;;;;;;;12.60;11.87;;;10.90;99.90;;;;;;4867209;29;20319;-42
2023/10/05 03:12:48;;;;;;;12.57;11.87;;;10.90;99.90;;;;;;4867206;29;20267;-46
2023/10/05 03:15:14;;;;;;;13.40;12.40;;;11.00;99.90;;;;;;4867015;29;20483;-48
2023/10/05 03:17:40;;;;;;;13.30;12.30;;;11.00;99.90;;;;;;4866225;29;20340;-49
2023/10/05 03:20:08;;;;;;;12.83;12.03;;;10.90;99.90;;;;;;4866705;29;20441;-46
2023/10/05 03:22:34;;;;;;;12.90;12.10;;;11.00;99.90;;;;;;4866743;29;20196;-45
2023/10/05 03:25:00;;;;;;;12.70;11.90;;;11.00;99.90;;;;;;4867034;29;21613;-47
2023/10/05 03:27:26;;;;;;;13.57;12.50;;;11.00;99.90;;;;;;4866435;29;20455;-47
2023/10/05 03:29:57;;;;;;;13.17;12.27;;;11.10;99.90;;;;;;4866527;29;20212;-48
2023/10/05 03:32:28;;;;;;;13.37;12.50;;;11.10;99.90;;;;;;4866802;29;20180;-48
2023/10/05 03:34:58;;;;;;;12.20;11.40;;;11.40;99.90;;;;;;4865878;29;20822;-49
2023/10/05 03:37:24;;;;;;;11.47;10.67;;;11.60;99.90;;;;;;4865985;29;20475;-41
2023/10/05 03:40:08;;;;;;;12.33;11.27;;;11.60;99.90;;;;;;4866415;29;20488;-51
2023/10/05 03:42:34;;;;;;;12.73;11.83;;;11.70;99.90;;;;;;4866905;29;20515;-47
2023/10/05 03:45:11;;;;;;;11.87;10.97;;;11.70;99.90;;;;;;4866190;29;20432;-45
2023/10/05 03:47:37;;;;;;;11.40;10.70;;;11.80;99.90;;;;;;4865753;29;20974;-46
2023/10/05 03:50:04;;;;;;;12.13;11.33;;;11.90;99.90;;;;;;4866636;29;20837;-49
2023/10/05 03:52:32;;;;;;;12.00;11.20;;;11.80;99.90;;;;;;4866691;29;20515;-47
2023/10/05 03:55:01;;;;;;;12.27;11.37;;;11.80;99.90;;;;;;4866334;29;20412;-45
2023/10/05 03:57:34;;;;;;;12.33;11.60;;;11.80;99.90;;;;;;4866175;29;20494;-48
2023/10/05 04:00:16;;;;;;;12.20;11.23;;;11.80;99.90;;;;;;4866542;29;20508;-48
2023/10/05 04:02:43;;;;;;;12.10;11.27;;;11.80;99.90;;;;;;4870083;29;20420;-49
2023/10/05 04:05:10;;;;;;;13.40;11.60;;;11.80;99.90;;;;;;4870134;29;20429;-48
2023/10/05 04:07:37;;;;;;;12.07;11.10;;;11.70;99.90;;;;;;4868564;29;20943;-46
2023/10/05 04:10:03;;;;;;;12.17;11.30;;;11.70;99.90;;;;;;4870082;29;20460;-44
2023/10/05 04:12:32;;;;;;;11.87;11.17;;;11.70;99.90;;;;;;4870160;29;20421;-44
2023/10/05 04:15:00;;;;;;;12.30;11.40;;;11.60;99.90;;;;;;4869071;29;21014;-47
2023/10/05 04:17:26;;;;;;;11.03;10.40;;;11.50;99.90;;;;;;4869115;29;20432;-49
2023/10/05 04:19:52;;;;;;;11.60;10.70;;;11.40;99.90;;;;;;4868577;29;20947;-45
2023/10/05 04:22:18;;;;;;;11.30;10.60;;;11.30;99.90;;;;;;4866654;29;20452;-49
2023/10/05 04:24:45;;;;;;;12.23;11.33;;;11.30;99.90;;;;;;4868313;29;20815;-47
2023/10/05 04:27:10;;;;;;;12.77;11.53;;;11.20;99.90;;;;;;4867436;29;20454;-50
2023/10/05 04:29:37;;;;;;;12.03;11.13;;;11.10;99.90;;;;;;4868935;29;20472;-48
2023/10/05 04:32:06;;;;;;;10.70;9.70;;;11.10;99.90;;;;;;4869863;29;20674;-48
2023/10/05 04:34:32;;;;;;;11.63;10.83;;;11.10;99.90;;;;;;4869060;29;20547;-47
2023/10/05 04:36:58;;;;;;;12.47;11.53;;;11.10;99.90;;;;;;4867117;29;20444;-47
2023/10/05 04:39:32;;;;;;;12.70;11.70;;;11.00;99.90;;;;;;4867373;29;20851;-51
2023/10/05 04:42:05;;;;;;;12.03;11.30;;;11.20;99.90;;;;;;4868758;29;20442;-46
2023/10/05 04:44:31;;;;;;;10.97;10.27;;;11.30;99.90;;;;;;4868497;29;20419;-47
2023/10/05 04:46:56;;;;;;;11.27;10.47;;;11.30;99.90;;;;;;4867051;29;20848;-44
2023/10/05 04:49:24;;;;;;;11.27;10.47;;;11.40;99.90;;;;;;4868228;29;20222;-47
2023/10/05 04:51:51;;;;;;;12.17;11.00;;;11.50;99.90;;;;;;4868497;29;20184;-44
2023/10/05 04:54:25;;;;;;;11.30;10.40;;;11.70;99.90;;;;;;4867932;29;20479;-47
2023/10/05 04:56:54;;;;;;;11.90;11.00;;;11.70;99.90;;;;;;4868044;29;20424;-46
2023/10/05 05:02:17;;;;;;;12.20;11.30;;;11.90;99.90;;;;;;4867598;29;20444;-46
2023/10/05 05:07:12;;;;;;;12.30;11.40;;;12.10;99.90;;;;;;4866733;29;20455;-46
2023/10/05 05:09:42;;;;;;;11.67;10.67;;;12.20;99.90;;;;;;4867318;29;20564;-45
2023/10/05 05:12:09;;;;;;;11.13;10.33;;;12.20;99.90;;;;;;4866568;29;20424;-44
2023/10/05 05:14:42;;;;;;;11.60;10.80;;;12.20;99.90;;;;;;4865898;29;20452;-47
2023/10/05 05:17:11;;;;;;;12.30;11.27;;;12.20;99.90;;;;;;4866633;29;20487;-49
2023/10/05 05:19:39;;;;;;;11.03;10.27;;;12.20;99.90;;;;;;4867458;29;20432;-46
2023/10/05 05:22:05;;;;;;;12.33;11.23;;;12.20;99.90;;;;;;4867941;29;20459;-48
2023/10/05 05:24:35;;;;;;;12.77;11.77;;;12.20;99.90;;;;;;4866595;29;20436;-49
2023/10/05 05:27:19;;;;;;;12.40;11.33;;;12.40;99.90;;;;;;4867277;29;20947;-45
2023/10/05 05:29:45;;;;;;;11.03;10.33;;;12.40;99.90;;;;;;4867767;29;20523;-45
2023/10/05 05:32:11;;;;;;;12.03;11.13;;;12.40;99.90;;;;;;4866656;29;20523;-45
2023/10/05 05:34:37;;;;;;;11.33;10.43;;;12.40;99.90;;;;;;4867008;29;20444;-46
2023/10/05 05:37:07;;;;;;;11.53;10.63;;;12.50;99.90;;;;;;4867789;29;20424;-44
2023/10/05 05:39:39;;;;;;;10.60;9.70;;;12.50;99.90;;;;;;4868003;29;20539;-44
2023/10/05 05:42:07;;;;;;;12.63;11.63;;;12.50;99.90;;;;;;4866586;29;20479;-42
2023/10/05 05:44:36;;;;;;;12.77;11.73;;;12.50;99.90;;;;;;4866396;29;20915;-45
2023/10/05 05:47:09;;;;;;;12.00;11.10;;;12.60;99.90;;;;;;4867553;29;20986;-47
2023/10/05 05:49:40;;;;;;;12.60;11.60;;;12.60;99.90;;;;;;4867016;29;20463;-52
2023/10/05 05:52:11;;;;;;;11.80;10.80;;;12.60;99.90;;;;;;4865760;29;20436;-46
2023/10/05 05:54:37;;;;;;;12.90;12.00;;;12.60;99.90;;;;;;4866647;29;20490;-48
2023/10/05 05:57:06;;;;;;;11.30;10.60;;;12.70;99.90;;;;;;4867464;29;20427;-46
2023/10/05 05:59:34;;;;;;;12.80;11.70;;;12.80;99.90;;;;;;4867282;29;20433;-44
2023/10/05 06:02:01;;;;;;;12.60;11.70;;;12.80;99.90;;;;;;4865773;29;20527;-50
2023/10/05 06:04:28;;;;;;;12.80;11.80;;;12.90;99.90;;;;;;4865367;29;21006;-40
2023/10/05 06:06:54;;;;;;;12.87;11.87;;;12.90;99.90;;;;;;4866637;29;20438;-48
2023/10/05 06:09:22;;;;;;;12.70;11.70;;;13.00;99.90;;;;;;4866124;29;20464;-50
2023/10/05 06:11:51;;;;;;;11.50;10.60;;;13.00;99.90;;;;;;4866998;29;20236;-46
2023/10/05 06:14:17;;;;;;;13.10;12.13;;;13.00;99.90;;;;;;4866384;29;21036;-44
2023/10/05 06:16:43;;;;;;;12.33;11.53;;;13.20;99.90;;;;;;4866734;29;20428;-46
2023/10/05 06:19:09;;;;;;;12.30;11.30;;;13.20;99.90;;;;;;4867282;29;20431;-48
2023/10/05 06:21:35;;;;;;;12.63;11.73;;;13.30;99.90;;;;;;4866397;29;20193;-48
2023/10/05 06:24:05;;;;;;;12.93;11.90;;;13.30;99.90;;;;;;4865003;29;20199;-46
2023/10/05 06:26:31;;;;;;;13.17;11.97;;;13.40;99.90;;;;;;4866422;29;20744;-45
2023/10/05 06:28:57;;;;;;;11.50;10.70;;;13.40;99.90;;;;;;4866125;29;20441;-41
2023/10/05 06:31:23;;;;;;;12.17;11.27;;;13.50;99.90;;;;;;4865123;29;20183;-47
2023/10/05 06:33:48;;;;;;;12.50;11.60;;;13.50;99.90;;;;;;4866899;29;20421;-45
2023/10/05 06:36:14;;;;;;;13.60;12.70;;;13.50;99.90;;;;;;4865556;29;20512;-46
2023/10/05 06:38:40;;;;;;;12.80;11.80;;;13.50;99.90;;;;;;4865519;29;20960;-45
2023/10/05 06:41:06;;;;;;;12.80;11.80;;;13.50;99.90;;;;;;4866516;29;20745;-49
2023/10/05 06:43:35;;;;;;;13.23;12.23;;;13.50;99.90;;;;;;4866352;29;20271;-48
2023/10/05 06:46:17;;;;;;;12.83;11.93;;;13.60;99.90;;;;;;4865649;29;20784;-47
2023/10/05 06:48:49;;;;;;;13.30;12.37;;;13.60;99.90;;;;;;4864792;29;20796;-45
2023/10/05 06:51:27;;;;;;;12.97;12.00;;;13.70;99.90;;;;;;4865389;29;20463;-46
2023/10/05 06:53:53;;;;;;;12.40;11.60;;;13.70;99.90;;;;;;4866359;29;20437;-44
2023/10/05 06:56:21;;;;;;;12.80;11.80;;;13.70;99.90;;;;;;4866173;29;20565;-47
2023/10/05 06:58:47;;;;;;;11.73;10.93;;;13.70;99.90;;;;;;4865512;29;21162;-45
2023/10/05 07:01:12;;;;;;;11.80;10.93;;;13.80;99.90;;;;;;4866149;29;20440;-46
2023/10/05 07:03:38;;;;;;;13.63;12.63;;;13.80;99.90;;;;;;4866072;29;20774;-49
2023/10/05 07:06:04;;;;;;;12.63;11.83;;;13.90;99.90;;;;;;4866420;29;20188;-47
2023/10/05 07:08:31;;;;;;;13.13;12.20;;;13.90;99.90;;;;;;4864957;29;20203;-49
2023/10/05 07:10:57;;;;;;;13.60;12.33;;;14.00;99.90;;;;;;4865997;29;20506;-41
2023/10/05 07:13:24;;;;;;;13.23;12.03;;;14.10;99.90;;;;;;4866261;29;20855;-43
2023/10/05 07:15:50;;;;;;;13.90;12.70;;;14.20;99.90;;;;;;4866044;29;20184;-39
2023/10/05 07:18:18;;;;;;;12.93;11.93;;;14.20;99.90;;;;;;4865602;29;20444;-41
2023/10/05 07:20:44;;;;;;;11.77;10.93;;;14.30;99.90;;;;;;4866133;29;20639;-44
2023/10/05 07:23:10;;;;;;;12.77;11.90;;;14.40;99.90;;;;;;4866465;29;20760;-39
2023/10/05 07:25:36;;;;;;;12.73;11.90;;;14.50;99.90;;;;;;4866393;29;20827;-40
2023/10/05 07:28:03;;;;;;;13.57;12.57;;;14.60;99.90;;;;;;4865671;29;20463;-42
2023/10/05 07:30:29;;;;;;;12.60;11.80;;;14.80;99.90;;;;;;4866153;29;20540;-40
2023/10/05 07:32:55;;;;;;;11.90;11.10;;;14.90;99.90;;;;;;4865710;29;20577;-46
2023/10/05 07:35:21;;;;;;;12.13;11.23;;;14.90;99.90;;;;;;4866396;29;20184;-40
2023/10/05 07:37:47;;;;;;;12.47;11.47;;;15.00;99.90;;;;;;4867851;29;20223;-40
2023/10/05 07:40:13;;;;;;;13.67;12.37;;;15.10;99.90;;;;;;4866325;29;20537;-41
2023/10/05 07:42:39;;;;;;;12.20;11.30;;;15.20;99.90;;;;;;4868846;29;20447;-40
2023/10/05 07:45:07;;;;;;;12.40;11.60;;;15.20;99.90;;;;;;4868041;29;20195;-43
2023/10/05 07:47:39;;;;;;;12.33;11.43;;;15.10;99.90;;;;;;4868733;29;20517;-41
2023/10/05 07:50:06;;;;;;;11.60;10.83;;;15.10;99.90;;;;;;4868890;29;20471;-39
2023/10/05 07:52:32;;;;;;;13.13;12.03;;;15.10;99.90;;;;;;4869096;29;20428;-44
2023/10/05 07:54:57;;;;;;;12.87;11.90;;;15.10;99.90;;;;;;4868308;29;20898;-43
2023/10/05 07:57:23;;;;;;;13.60;12.60;;;15.20;99.90;;;;;;4868556;29;20248;-41
2023/10/05 07:59:49;;;;;;;12.43;11.63;;;15.30;99.90;;;;;;4868931;29;20469;-42
2023/10/05 08:02:14;;;;;;;12.67;11.47;;;15.40;99.90;;;;;;4869385;29;20455;-40
2023/10/05 08:04:41;;;;;;;12.77;11.63;;;15.50;99.90;;;;;;4868606;29;20248;-40
2023/10/05 08:07:08;;;;;;;12.47;11.67;;;15.60;99.90;;;;;;4866011;29;20200;-40
2023/10/05 08:09:34;;;;;;;12.93;12.13;;;15.60;99.90;;;;;;4865478;29;20562;-42
2023/10/05 08:12:00;;;;;;;12.03;11.23;;;15.80;99.90;;;;;;4868853;29;20430;-41
2023/10/05 08:14:30;;;;;;;12.50;11.70;;;15.80;99.90;;;;;;4868276;29;20895;-40
2023/10/05 08:16:56;;;;;;;13.20;12.20;;;16.00;99.90;;;;;;4866992;29;20455;-40
2023/10/05 08:19:25;;;;;;;11.80;11.00;;;16.10;99.70;;;;;;4868394;29;20597;-47
2023/10/05 08:21:54;;;;;;;12.80;11.80;;;16.30;99.60;;;;;;4868278;29;20900;-41
2023/10/05 08:24:23;;;;;;;11.33;10.63;;;16.50;98.30;;;;;;4867943;29;20464;-40
2023/10/05 08:26:58;;;;;;;12.60;11.80;;;16.50;98.00;;;;;;4867527;29;20736;-41
2023/10/05 08:29:24;;;;;;;12.53;11.63;;;16.60;97.90;;;;;;4868073;29;20471;-39
2023/10/05 08:31:50;;;;;;;12.43;11.63;;;16.80;97.00;;;;;;4868730;29;20447;-40
2023/10/05 08:34:22;;;;;;;12.13;11.43;;;16.90;96.40;;;;;;4868832;29;20839;-40
2023/10/05 08:36:53;;;;;;;12.40;11.50;;;17.10;96.50;;;;;;4867960;29;20683;-40
2023/10/05 08:39:25;;;;;;;11.77;10.97;;;17.10;95.70;;;;;;4863961;29;20455;-42
2023/10/05 08:41:55;;;;;;;12.03;11.20;;;16.90;95.60;;;;;;4866971;29;20445;-42
2023/10/05 08:44:30;;;;;;;12.77;11.73;;;16.90;95.60;;;;;;4868231;29;20999;-42
2023/10/05 08:47:00;;;;;;;12.57;11.60;;;17.00;95.70;;;;;;4866260;29;20443;-41
2023/10/05 08:49:27;;;;;;;12.20;11.50;;;17.10;95.00;;;;;;4867622;29;20903;-41
2023/10/05 08:51:53;;;;;;;12.23;11.00;;;17.30;94.80;;;;;;4867875;29;20439;-45
2023/10/05 08:54:27;;;;;;;12.30;11.50;;;17.70;93.50;;;;;;4867833;29;20420;-41
2023/10/05 08:56:57;;;;;;;12.67;11.87;;;18.20;92.70;;;;;;4867145;29;20200;-42
2023/10/05 08:59:26;;;;;;;12.37;11.67;;;18.40;92.30;;;;;;4868254;29;20813;-50
2023/10/05 09:01:53;;;;;;;12.60;11.77;;;18.90;91.40;;;;;;4868017;29;20447;-41
2023/10/05 09:06:49;;;;;;;13.23;12.40;;;19.00;88.40;;;;;;4867425;29;20599;-40
2023/10/05 09:09:15;;;;;;;11.80;11.10;;;19.10;87.40;;;;;;4867332;29;20203;-43
2023/10/05 09:11:42;;;;;;;12.00;11.40;;;19.20;88.60;;;;;;4867483;29;21587;-42
2023/10/05 09:14:18;;;;;;;11.73;10.93;;;19.20;89.10;;;;;;4867897;29;20428;-42
2023/10/05 09:16:46;;;;;;;11.60;10.80;;;19.10;86.40;;;;;;4866920;29;20801;-41
2023/10/05 09:19:17;;;;;;;12.53;11.83;;;19.10;87.90;;;;;;4867411;29;20775;-44
2023/10/05 09:21:51;;;;;;;12.23;11.43;;;18.80;87.90;;;;;;4867241;29;20417;-41
2023/10/05 09:24:21;;;;;;;12.13;11.43;;;18.70;87.50;;;;;;4867140;29;20794;-40
2023/10/05 09:27:15;;;;;;;12.17;11.40;;;18.50;88.10;;;;;;4866479;29;21107;-39
2023/10/05 09:29:42;;;;;;;12.90;12.00;;;18.30;87.80;;;;;;4866364;29;20464;-40
2023/10/05 09:32:21;;;;;;;12.30;11.50;;;18.70;90.20;;;;;;4866882;29;20783;-39
2023/10/05 09:34:49;;;;;;;12.60;11.80;;;19.20;86.80;;;;;;4867096;29;20750;-43
2023/10/05 09:37:16;;;;;;;11.70;11.10;;;19.70;86.90;;;;;;4866256;29;20472;-39
2023/10/05 09:39:44;;;;;;;12.20;11.30;;;20.10;83.10;;;;;;4865752;29;20439;-44
2023/10/05 09:42:16;;;;;;;10.43;9.80;;;20.50;81.20;;;;;;4859533;29;20438;-40
2023/10/05 09:44:53;;;;;;;12.83;12.03;;;21.30;77.90;;;;;;4867691;29;20483;-40
2023/10/05 09:47:21;;;;;;;12.13;11.43;;;21.50;72.70;;;;;;4866058;29;20752;-42
2023/10/05 09:49:50;;;;;;;12.37;11.77;;;21.40;70.70;;;;;;4867317;29;20579;-40
2023/10/05 09:52:19;;;;;;;10.97;10.40;;;21.40;71.10;;;;;;4868003;29;20503;-48
2023/10/05 09:54:47;;;;;;;12.30;11.60;;;21.60;69.20;;;;;;4867720;29;20432;-45
2023/10/05 09:57:16;;;;;;;11.80;11.20;;;21.30;70.30;;;;;;4867389;29;20475;-48
2023/10/05 09:59:45;;;;;;;12.27;11.37;;;21.20;68.80;;;;;;4864277;29;20440;-48
2023/10/05 10:02:16;;;;;;;11.50;10.90;;;21.30;67.10;;;;;;4867361;29;20432;-45
2023/10/05 10:04:42;;;;;;;12.10;11.50;;;21.40;69.90;;;;;;4866633;29;20437;-44
2023/10/05 10:07:22;;;;;;;12.10;11.30;;;21.60;67.70;;;;;;4866317;29;20444;-47
2023/10/05 10:09:53;;;;;;;11.90;11.20;;;21.70;68.50;;;;;;4867430;29;20464;-45
2023/10/05 10:12:25;;;;;;;12.03;11.40;;;21.30;67.20;;;;;;4866964;29;20764;-49
2023/10/05 10:14:53;;;;;;;12.30;11.60;;;21.00;68.90;;;;;;4866951;29;20424;-50
2023/10/05 10:17:28;;;;;;;11.70;11.10;;;20.60;69.70;;;;;;4866387;29;20797;-45
2023/10/05 10:20:35;;;;;;;11.67;11.00;;;20.50;72.70;;;;;;4868101;29;20412;-46
2023/10/05 10:23:14;;;;;;;11.40;10.77;;;20.70;71.90;;;;;;4867629;29;20475;-47
2023/10/05 10:25:40;;;;;;;11.70;11.07;;;20.00;70.10;;;;;;4867333;29;20428;-44
2023/10/05 10:28:39;;;;;;;12.37;11.43;;;19.80;71.90;;;;;;4866739;29;20535;-48
2023/10/05 10:31:17;;;;;;;10.27;9.67;;;19.70;73.90;;;;;;4867149;29;20476;-48
2023/10/05 10:33:50;;;;;;;12.50;11.70;;;20.00;76.50;;;;;;4866002;29;20493;-49
2023/10/05 10:36:18;;;;;;;12.40;11.70;;;20.00;73.90;;;;;;4867464;29;20431;-46
2023/10/05 10:38:46;;;;;;;12.03;11.43;;;19.80;74.40;;;;;;4865003;29;21519;-44
2023/10/05 10:41:15;;;;;;;12.00;11.30;;;19.90;74.50;;;;;;4861192;29;20575;-40
2023/10/05 10:43:49;;;;;;;12.43;11.63;;;20.00;74.50;;;;;;4865134;29;20487;-44
2023/10/05 10:46:28;;;;;;;11.97;11.37;;;19.60;74.50;;;;;;4863198;29;20441;-49
2023/10/05 10:48:57;;;;;;;12.10;11.40;;;19.50;73.60;;;;;;4864034;29;20440;-48
2023/10/05 10:51:23;;;;;;;11.70;11.10;;;19.30;72.20;;;;;;4865674;29;20424;-48
2023/10/05 10:53:55;;;;;;;11.77;11.17;;;19.20;74.30;;;;;;4866750;29;20413;-46
2023/10/05 10:56:27;;;;;;;12.47;11.60;;;19.20;74.60;;;;;;4867145;29;20412;-45
2023/10/05 10:58:57;;;;;;;11.80;11.20;;;19.00;75.90;;;;;;4866463;29;20575;-46
2023/10/05 11:01:29;;;;;;;11.97;11.30;;;19.00;76.60;;;;;;4866622;29;20444;-44
2023/10/05 11:04:04;;;;;;;12.00;11.30;;;19.20;75.50;;;;;;4865345;29;21519;-48
2023/10/05 11:06:30;;;;;;;11.97;11.37;;;19.30;74.50;;;;;;4864742;29;20526;-51
2023/10/05 11:08:59;;;;;;;11.33;10.70;;;19.40;74.80;;;;;;4864043;29;21324;-49
2023/10/05 11:11:25;;;;;;;10.37;9.87;;;19.80;74.90;;;;;;4866659;29;20425;-48
2023/10/05 11:13:55;;;;;;;11.80;11.20;;;20.00;71.10;;;;;;4868488;29;20412;-47
2023/10/05 11:16:21;;;;;;;11.43;10.90;;;19.70;69.60;;;;;;4867845;29;20430;-48
2023/10/05 11:19:04;;;;;;;11.60;10.77;;;19.80;71.20;;;;;;4868859;29;20436;-48
2023/10/05 11:21:35;;;;;;;12.47;11.30;;;19.70;69.90;;;;;;4869465;29;21301;-46
2023/10/05 11:24:06;;;;;;;11.30;10.73;;;19.70;70.60;;;;;;4868571;29;20448;-49
2023/10/05 11:29:15;;;;;;;10.77;10.00;;;19.20;72.40;;;;;;4866464;29;20923;-48
2023/10/05 11:31:41;;;;;;;11.60;10.90;;;19.10;72.50;;;;;;4868587;29;20814;-51
2023/10/05 11:34:13;;;;;;;11.47;10.87;;;18.90;72.30;;;;;;4868437;29;20428;-49
2023/10/05 11:36:40;;;;;;;11.07;10.20;;;18.80;72.90;;;;;;4868284;29;20443;-48
2023/10/05 11:39:20;;;;;;;11.50;10.87;;;18.50;73.70;;;;;;4868301;29;20448;-47
2023/10/05 11:41:47;;;;;;;10.67;10.07;;;18.50;74.80;;;;;;4869979;29;20510;-48
2023/10/05 11:44:20;;;;;;;11.57;10.87;;;18.30;74.70;;;;;;4868215;29;20802;-46
2023/10/05 11:46:48;;;;;;;11.00;10.40;;;18.30;74.90;;;;;;4869265;29;20428;-47
2023/10/05 11:49:13;;;;;;;11.37;10.80;;;18.40;74.60;;;;;;4869977;29;20408;-50
2023/10/05 11:51:42;;;;;;;11.03;10.43;;;18.40;75.40;;;;;;4868546;29;20429;-46
2023/10/05 11:54:08;;;;;;;11.07;10.57;;;18.60;75.30;;;;;;4869041;29;20180;-45
2023/10/05 11:56:34;;;;;;;11.83;11.13;;;18.60;72.40;;;;;;4869887;29;20557;-49
2023/10/05 11:59:00;;;;;;;10.60;10.10;;;18.70;75.30;;;;;;4867942;29;20472;-52
2023/10/05 12:01:26;;;;;;;10.83;10.20;;;18.80;74.00;;;;;;4867095;29;20530;-52
2023/10/05 12:03:54;;;;;;;11.77;11.20;;;18.80;73.00;;;;;;4866824;29;20464;-51
2023/10/05 12:06:26;;;;;;;11.80;10.90;;;18.80;73.50;;;;;;4868970;29;20794;-48
2023/10/05 12:08:53;;;;;;;11.30;10.70;;;18.90;72.90;;;;;;4868565;29;20476;-49
2023/10/05 12:11:23;;;;;;;11.20;10.60;;;19.00;72.50;;;;;;4866605;29;20471;-49
2023/10/05 12:13:50;;;;;;;10.83;10.23;;;19.10;72.70;;;;;;4867521;29;20436;-48
2023/10/05 12:16:16;;;;;;;11.67;11.10;;;19.00;71.00;;;;;;4868184;29;21258;-47
2023/10/05 12:18:42;;;;;;;12.40;11.50;;;19.00;70.70;;;;;;4869449;29;20421;-47
2023/10/05 12:21:09;;;;;;;11.20;10.70;;;18.90;71.70;;;;;;4868349;29;20198;-48
2023/10/05 12:23:35;;;;;;;11.83;11.17;;;18.90;71.00;;;;;;4869244;29;20184;-39
2023/10/05 12:26:04;;;;;;;12.00;11.50;;;18.90;72.30;;;;;;4868356;29;20870;-40
2023/10/05 12:28:30;;;;;;;12.10;11.40;;;19.00;73.40;;;;;;4869226;29;20420;-39
2023/10/05 12:30:56;;;;;;;11.50;10.80;;;19.00;73.30;;;;;;4869277;29;20464;-41
2023/10/05 12:33:21;;;;;;;11.37;10.80;;;19.00;71.60;;;;;;4868819;29;21125;-41
2023/10/05 12:35:52;;;;;;;11.83;11.23;;;19.10;71.80;;;;;;4869315;29;20195;-40
2023/10/05 12:38:19;;;;;;;11.20;10.70;;;18.80;72.10;;;;;;4869776;29;20240;-39
2023/10/05 12:40:47;;;;;;;12.30;11.60;;;18.70;72.30;;;;;;4869418;29;20512;-39
2023/10/05 12:43:15;;;;;;;12.10;11.50;;;18.50;73.10;;;;;;4867933;29;20443;-40
2023/10/05 12:45:42;;;;;;;11.40;10.80;;;18.30;74.50;;;;;;4868804;29;21068;-40
2023/10/05 12:48:08;;;;;;;12.27;11.27;;;18.40;75.90;;;;;;4869203;29;20467;-40
2023/10/05 12:50:34;;;;;;;11.70;11.10;;;18.50;76.30;;;;;;4868833;29;20483;-39
2023/10/05 12:53:00;;;;;;;11.13;10.63;;;18.40;75.10;;;;;;4868099;29;20428;-39
2023/10/05 12:55:26;;;;;;;11.50;10.90;;;18.40;77.40;;;;;;4868275;29;20949;-40
2023/10/05 12:57:53;;;;;;;11.10;10.40;;;18.60;75.80;;;;;;4868759;29;20183;-40
2023/10/05 13:00:39;;;;;;;11.63;11.10;;;18.70;75.80;;;;;;4868519;29;20539;-40
2023/10/05 13:03:05;;;;;;;11.37;10.77;;;18.80;75.10;;;;;;4868235;29;20420;-40
2023/10/05 13:05:31;;;;;;;11.47;10.80;;;18.90;75.60;;;;;;4867400;29;20462;-39
2023/10/05 13:08:03;;;;;;;10.67;9.97;;;18.90;73.40;;;;;;4868597;29;20527;-41